Greenbrier, AR

5:36 AM CST on December 27, 2014 (GMT -0600)
North Heights | Change Station
CLOSE
Current Station
Personal Weather Station
Location: Greenbrier, AR
Elevation: 420 ft
Nearby Weather Stations

Elev 420 ft 35.25 °N, 92.39 °W | Updated 14 minutes ago

Overcast
Overcast
52.7 °F
Feels Like 52.7 °F
N
1.7
Wind Variable Wind from NE

Today
High -- | Low -- °F
--% Chance of Precip.
Yesterday
High -- | Low -- °F
Precip. -- in
7:16 AM 5:04 PM
Waxing Crescent, 35% visible
Pressure 30.08 in
Visibility 9.0 miles
Clouds Overcast 200 ft
Dew Point 52 °F
Humidity 99%
Rainfall 0.00 in
Snow Depth Not available.
UV 0 out of 12
Pollen 7.00 out of 12
Air Quality Not available.
Flu Activity Not available.
METAR KLRF 271058Z AUTO 10003KT 9SM -DZ OVC002 12/12 A3007 RMK AO2 RAE1011DZB1011E1013B1054 SLP185 P0002 T01180116

More Conditions Fewer Conditions

Pressure 30.08 in
Visibility 9.0 miles
Clouds Overcast 200 ft
Dew Point 52 °F
Humidity 99%
Rainfall 0.00 in
Snow Depth Not available.
UV 0 out of 12
Pollen 7.00 out of 12
Air Quality Not available.
Flu Activity Not available.
METAR KLRF 271058Z AUTO 10003KT 9SM -DZ OVC002 12/12 A3007 RMK AO2 RAE1011DZB1011E1013B1054 SLP185 P0002 T01180116

More Conditions Fewer Conditions

10-Day Weather Forecast

Almanac

Astronomy

Dec. 27, 2014 Rise Set
Actual Time
Civil Twilight
Nautical Twilight
Astronomical Twilight
Moon
Length of Visible Light
Length of Day
Tomorrow will be .
, % of the Moon is Illuminated

Today's Extremes

State Highs State Lows

Community

WunderPhotos

Upload Photos

1,780,881 photos uploaded!

WunderBlogs® & News

Nearby

Air Quality

  Air Quality AQ Index Pollutant
Not available.

Snow Depth

Station Depth Elevation

Earthquake Activity

City Distance Mag. Time & Date
Minimum magnitude displayed is 2.5.

Coastal Water Temperatures

Place Temperature

Nearby Weather Stations